sensor_id;sensor_type;location;lat;lon;timestamp;pressure;altitude;pressure_sealevel;temperature;humidity
36242;BME280;22283;42.748;12.732;2024-03-02T00:01:47;97269.88;;;8.88;99.91
36242;BME280;22283;42.748;12.732;2024-03-02T00:06:47;97266.63;;;8.84;100.00
36242;BME280;22283;42.748;12.732;2024-03-02T00:11:48;97268.16;;;8.86;100.00
36242;BME280;22283;42.748;12.732;2024-03-02T00:16:49;97272.97;;;8.93;99.47
36242;BME280;22283;42.748;12.732;2024-03-02T00:21:49;97278.34;;;9.02;99.55
36242;BME280;22283;42.748;12.732;2024-03-02T00:26:50;97261.44;;;8.94;99.51
36242;BME280;22283;42.748;12.732;2024-03-02T00:31:50;97264.09;;;8.94;100.00
36242;BME280;22283;42.748;12.732;2024-03-02T00:36:51;97269.13;;;8.97;99.35
36242;BME280;22283;42.748;12.732;2024-03-02T00:41:52;97272.00;;;8.94;100.00
36242;BME280;22283;42.748;12.732;2024-03-02T00:46:53;97271.03;;;8.95;99.40
36242;BME280;22283;42.748;12.732;2024-03-02T00:51:54;97276.91;;;8.98;100.00
36242;BME280;22283;42.748;12.732;2024-03-02T00:56:55;97284.13;;;8.96;100.00
36242;BME280;22283;42.748;12.732;2024-03-02T01:01:56;97275.38;;;8.96;100.00
36242;BME280;22283;42.748;12.732;2024-03-02T01:06:56;97278.00;;;8.96;100.00
36242;BME280;22283;42.748;12.732;2024-03-02T01:11:59;97271.78;;;8.85;100.00
36242;BME280;22283;42.748;12.732;2024-03-02T01:16:59;97278.03;;;8.84;100.00
36242;BME280;22283;42.748;12.732;2024-03-02T01:22:03;97280.16;;;8.91;100.00
36242;BME280;22283;42.748;12.732;2024-03-02T01:27:04;97274.63;;;8.94;100.00
36242;BME280;22283;42.748;12.732;2024-03-02T01:32:05;97281.78;;;9.14;98.91
36242;BME280;22283;42.748;12.732;2024-03-02T01:37:06;97274.59;;;9.16;98.33
36242;BME280;22283;42.748;12.732;2024-03-02T01:42:06;97267.66;;;9.15;98.45
36242;BME280;22283;42.748;12.732;2024-03-02T01:47:07;97261.78;;;9.11;98.78
36242;BME280;22283;42.748;12.732;2024-03-02T01:52:08;97261.44;;;9.05;99.80
36242;BME280;22283;42.748;12.732;2024-03-02T01:57:08;97286.75;;;9.07;100.00
36242;BME280;22283;42.748;12.732;2024-03-02T02:02:09;97270.94;;;8.96;100.00
36242;BME280;22283;42.748;12.732;2024-03-02T02:07:09;97269.72;;;9.00;100.00
36242;BME280;22283;42.748;12.732;2024-03-02T02:12:10;97265.03;;;9.04;100.00
36242;BME280;22283;42.748;12.732;2024-03-02T02:17:11;97251.94;;;9.02;100.00
36242;BME280;22283;42.748;12.732;2024-03-02T02:22:12;97251.13;;;9.02;100.00
36242;BME280;22283;42.748;12.732;2024-03-02T02:27:12;97236.63;;;8.96;100.00
36242;BME280;22283;42.748;12.732;2024-03-02T02:32:15;97256.06;;;8.95;100.00
36242;BME280;22283;42.748;12.732;2024-03-02T02:37:16;97249.00;;;8.84;100.00
36242;BME280;22283;42.748;12.732;2024-03-02T02:42:17;97232.34;;;8.84;100.00
36242;BME280;22283;42.748;12.732;2024-03-02T02:47:17;97247.56;;;8.80;100.00
36242;BME280;22283;42.748;12.732;2024-03-02T02:52:17;97250.91;;;8.82;100.00
36242;BME280;22283;42.748;12.732;2024-03-02T02:57:18;97245.41;;;8.85;100.00
36242;BME280;22283;42.748;12.732;2024-03-02T03:02:19;97238.94;;;8.78;100.00
36242;BME280;22283;42.748;12.732;2024-03-02T03:07:19;97252.09;;;8.90;100.00
36242;BME280;22283;42.748;12.732;2024-03-02T03:12:20;97245.16;;;8.89;100.00
36242;BME280;22283;42.748;12.732;2024-03-02T03:17:21;97250.44;;;8.89;100.00
36242;BME280;22283;42.748;12.732;2024-03-02T03:22:22;97261.22;;;8.85;100.00
36242;BME280;22283;42.748;12.732;2024-03-02T03:27:22;97259.94;;;8.80;100.00
36242;BME280;22283;42.748;12.732;2024-03-02T03:32:23;97261.97;;;8.76;100.00
36242;BME280;22283;42.748;12.732;2024-03-02T03:37:23;97275.16;;;8.76;100.00
36242;BME280;22283;42.748;12.732;2024-03-02T03:42:26;97261.13;;;8.76;100.00
36242;BME280;22283;42.748;12.732;2024-03-02T03:47:26;97278.88;;;8.74;100.00
36242;BME280;22283;42.748;12.732;2024-03-02T03:52:27;97276.81;;;8.66;100.00
36242;BME280;22283;42.748;12.732;2024-03-02T03:57:28;97273.13;;;8.57;100.00
36242;BME280;22283;42.748;12.732;2024-03-02T04:02:28;97280.16;;;8.34;100.00
36242;BME280;22283;42.748;12.732;2024-03-02T04:07:29;97289.25;;;8.30;100.00
36242;BME280;22283;42.748;12.732;2024-03-02T04:12:29;97290.22;;;8.29;100.00
36242;BME280;22283;42.748;12.732;2024-03-02T04:17:31;97287.94;;;8.13;100.00
36242;BME280;22283;42.748;12.732;2024-03-02T04:22:33;97290.78;;;8.10;100.00
36242;BME280;22283;42.748;12.732;2024-03-02T04:27:35;97293.56;;;8.09;100.00
36242;BME280;22283;42.748;12.732;2024-03-02T04:32:35;97302.16;;;8.11;100.00
36242;BME280;22283;42.748;12.732;2024-03-02T04:37:36;97309.84;;;8.14;100.00
36242;BME280;22283;42.748;12.732;2024-03-02T04:42:37;97289.50;;;8.16;100.00
36242;BME280;22283;42.748;12.732;2024-03-02T04:47:37;97293.31;;;8.12;100.00
36242;BME280;22283;42.748;12.732;2024-03-02T04:52:38;97289.25;;;8.19;100.00
36242;BME280;22283;42.748;12.732;2024-03-02T04:57:38;97300.88;;;8.17;100.00
36242;BME280;22283;42.748;12.732;2024-03-02T05:02:39;97298.59;;;8.23;100.00
36242;BME280;22283;42.748;12.732;2024-03-02T05:07:39;97303.28;;;8.31;100.00
36242;BME280;22283;42.748;12.732;2024-03-02T05:12:42;97310.63;;;8.38;100.00
36242;BME280;22283;42.748;12.732;2024-03-02T05:17:43;97316.97;;;8.36;100.00
36242;BME280;22283;42.748;12.732;2024-03-02T05:22:43;97311.59;;;8.37;100.00
36242;BME280;22283;42.748;12.732;2024-03-02T05:27:44;97315.88;;;8.38;100.00
36242;BME280;22283;42.748;12.732;2024-03-02T05:32:44;97333.75;;;8.46;100.00
36242;BME280;22283;42.748;12.732;2024-03-02T05:37:45;97334.25;;;8.51;100.00
36242;BME280;22283;42.748;12.732;2024-03-02T05:42:45;97323.44;;;8.54;100.00
36242;BME280;22283;42.748;12.732;2024-03-02T05:47:47;97335.06;;;8.63;100.00
36242;BME280;22283;42.748;12.732;2024-03-02T05:52:47;97331.94;;;8.47;100.00
36242;BME280;22283;42.748;12.732;2024-03-02T05:57:48;97337.72;;;8.41;100.00
36242;BME280;22283;42.748;12.732;2024-03-02T06:03:06;97353.53;;;8.52;100.00
36242;BME280;22283;42.748;12.732;2024-03-02T06:08:08;97349.94;;;8.53;100.00
36242;BME280;22283;42.748;12.732;2024-03-02T06:13:08;97351.41;;;8.68;100.00
36242;BME280;22283;42.748;12.732;2024-03-02T06:18:09;97356.91;;;8.76;100.00
36242;BME280;22283;42.748;12.732;2024-03-02T06:23:09;97364.09;;;8.85;100.00
36242;BME280;22283;42.748;12.732;2024-03-02T06:28:10;97370.81;;;9.01;100.00
36242;BME280;22283;42.748;12.732;2024-03-02T06:33:11;97377.75;;;9.13;100.00
36242;BME280;22283;42.748;12.732;2024-03-02T06:38:11;97384.09;;;9.22;100.00
36242;BME280;22283;42.748;12.732;2024-03-02T06:43:12;97393.34;;;9.39;100.00
36242;BME280;22283;42.748;12.732;2024-03-02T06:48:12;97407.22;;;9.52;100.00
36242;BME280;22283;42.748;12.732;2024-03-02T06:53:13;97411.75;;;9.61;100.00
36242;BME280;22283;42.748;12.732;2024-03-02T06:58:14;97413.41;;;9.62;100.00
36242;BME280;22283;42.748;12.732;2024-03-02T07:03:17;97406.22;;;9.64;100.00
36242;BME280;22283;42.748;12.732;2024-03-02T07:08:18;97416.41;;;9.69;100.00
36242;BME280;22283;42.748;12.732;2024-03-02T07:13:18;97423.25;;;9.82;100.00
36242;BME280;22283;42.748;12.732;2024-03-02T07:18:19;97429.19;;;9.96;100.00
36242;BME280;22283;42.748;12.732;2024-03-02T07:23:19;97441.22;;;9.89;100.00
36242;BME280;22283;42.748;12.732;2024-03-02T07:28:20;97446.84;;;9.95;100.00
36242;BME280;22283;42.748;12.732;2024-03-02T07:33:24;97457.78;;;10.02;100.00
36242;BME280;22283;42.748;12.732;2024-03-02T07:38:25;97473.34;;;10.05;100.00
36242;BME280;22283;42.748;12.732;2024-03-02T07:43:26;97469.16;;;10.14;100.00
36242;BME280;22283;42.748;12.732;2024-03-02T07:48:27;97483.66;;;10.19;100.00
36242;BME280;22283;42.748;12.732;2024-03-02T07:53:27;97488.41;;;10.37;100.00
36242;BME280;22283;42.748;12.732;2024-03-02T07:58:30;97493.97;;;10.33;100.00
36242;BME280;22283;42.748;12.732;2024-03-02T08:03:31;97495.19;;;10.18;100.00
36242;BME280;22283;42.748;12.732;2024-03-02T08:08:32;97509.34;;;10.17;100.00
36242;BME280;22283;42.748;12.732;2024-03-02T08:13:33;97504.81;;;10.19;100.00
36242;BME280;22283;42.748;12.732;2024-03-02T08:18:34;97518.72;;;10.21;100.00
36242;BME280;22283;42.748;12.732;2024-03-02T08:23:35;97521.13;;;10.24;100.00
36242;BME280;22283;42.748;12.732;2024-03-02T08:28:35;97552.16;;;10.33;100.00
36242;BME280;22283;42.748;12.732;2024-03-02T08:33:46;97562.97;;;10.30;100.00
36242;BME280;22283;42.748;12.732;2024-03-02T08:38:49;97561.31;;;10.07;100.00
36242;BME280;22283;42.748;12.732;2024-03-02T08:43:49;97565.41;;;10.00;100.00
36242;BME280;22283;42.748;12.732;2024-03-02T08:48:50;97573.56;;;9.97;100.00
36242;BME280;22283;42.748;12.732;2024-03-02T08:53:50;97572.34;;;10.01;100.00
36242;BME280;22283;42.748;12.732;2024-03-02T08:58:51;97569.47;;;10.15;100.00
36242;BME280;22283;42.748;12.732;2024-03-02T09:03:52;97571.75;;;10.31;100.00
36242;BME280;22283;42.748;12.732;2024-03-02T09:08:53;97575.59;;;10.70;100.00
36242;BME280;22283;42.748;12.732;2024-03-02T09:13:54;97587.03;;;10.92;100.00
36242;BME280;22283;42.748;12.732;2024-03-02T09:18:56;97588.06;;;11.00;100.00
36242;BME280;22283;42.748;12.732;2024-03-02T09:23:57;97585.56;;;10.99;100.00
36242;BME280;22283;42.748;12.732;2024-03-02T09:28:57;97594.13;;;10.59;100.00
36242;BME280;22283;42.748;12.732;2024-03-02T09:33:58;97604.84;;;10.57;100.00
36242;BME280;22283;42.748;12.732;2024-03-02T09:38:58;97590.94;;;10.76;100.00
36242;BME280;22283;42.748;12.732;2024-03-02T09:43:59;97606.75;;;11.41;100.00
36242;BME280;22283;42.748;12.732;2024-03-02T09:49:00;97597.69;;;11.64;100.00
36242;BME280;22283;42.748;12.732;2024-03-02T09:54:01;97601.09;;;11.76;100.00
36242;BME280;22283;42.748;12.732;2024-03-02T09:59:02;97615.19;;;12.07;100.00
36242;BME280;22283;42.748;12.732;2024-03-02T10:04:03;97612.53;;;12.57;100.00
36242;BME280;22283;42.748;12.732;2024-03-02T10:09:05;97601.91;;;12.67;100.00
36242;BME280;22283;42.748;12.732;2024-03-02T10:14:10;97614.66;;;13.02;100.00
36242;BME280;22283;42.748;12.732;2024-03-02T10:24:19;97618.41;;;13.48;97.95
36242;BME280;22283;42.748;12.732;2024-03-02T10:29:19;97621.47;;;13.53;98.23
36242;BME280;22283;42.748;12.732;2024-03-02T10:34:21;97614.72;;;13.68;95.69
36242;BME280;22283;42.748;12.732;2024-03-02T10:39:22;97623.16;;;13.64;95.34
36242;BME280;22283;42.748;12.732;2024-03-02T10:44:25;97636.16;;;13.57;95.49
36242;BME280;22283;42.748;12.732;2024-03-02T10:49:27;97611.47;;;13.27;96.76
36242;BME280;22283;42.748;12.732;2024-03-02T10:54:29;97627.09;;;13.11;94.86
36242;BME280;22283;42.748;12.732;2024-03-02T10:59:37;97622.59;;;13.02;96.65
36242;BME280;22283;42.748;12.732;2024-03-02T11:04:40;97627.38;;;13.08;95.40
36242;BME280;22283;42.748;12.732;2024-03-02T11:09:51;97608.94;;;13.36;93.07
36242;BME280;22283;42.748;12.732;2024-03-02T11:14:55;97608.25;;;13.81;84.52
36242;BME280;22283;42.748;12.732;2024-03-02T11:19:56;97602.28;;;14.06;84.89
36242;BME280;22283;42.748;12.732;2024-03-02T11:24:57;97609.78;;;14.20;78.06
36242;BME280;22283;42.748;12.732;2024-03-02T11:29:58;97609.34;;;14.52;75.93
36242;BME280;22283;42.748;12.732;2024-03-02T11:34:58;97601.31;;;14.62;73.75
36242;BME280;22283;42.748;12.732;2024-03-02T11:39:59;97587.84;;;14.64;70.39
36242;BME280;22283;42.748;12.732;2024-03-02T11:44:59;97586.47;;;15.13;68.34
36242;BME280;22283;42.748;12.732;2024-03-02T11:50:00;97590.38;;;15.45;66.29
36242;BME280;22283;42.748;12.732;2024-03-02T11:55:02;97586.69;;;15.20;65.63
36242;BME280;22283;42.748;12.732;2024-03-02T12:00:04;97578.09;;;15.08;66.60
36242;BME280;22283;42.748;12.732;2024-03-02T12:05:07;97574.59;;;14.54;69.93
36242;BME280;22283;42.748;12.732;2024-03-02T12:10:09;97590.13;;;14.31;74.09
36242;BME280;22283;42.748;12.732;2024-03-02T12:15:10;97580.69;;;14.09;74.33
36242;BME280;22283;42.748;12.732;2024-03-02T12:20:11;97571.28;;;13.87;74.45
36242;BME280;22283;42.748;12.732;2024-03-02T12:25:12;97571.75;;;13.83;75.94
36242;BME280;22283;42.748;12.732;2024-03-02T12:30:13;97566.19;;;14.03;75.53
36242;BME280;22283;42.748;12.732;2024-03-02T12:35:14;97563.34;;;14.33;74.60
36242;BME280;22283;42.748;12.732;2024-03-02T12:40:17;97564.63;;;14.56;73.54
36242;BME280;22283;42.748;12.732;2024-03-02T12:45:18;97557.56;;;14.83;73.89
36242;BME280;22283;42.748;12.732;2024-03-02T12:50:24;97562.66;;;14.94;72.37
36242;BME280;22283;42.748;12.732;2024-03-02T12:55:24;97554.31;;;14.89;70.70
36242;BME280;22283;42.748;12.732;2024-03-02T13:00:25;97550.72;;;14.62;69.82
36242;BME280;22283;42.748;12.732;2024-03-02T13:05:30;97551.03;;;14.59;73.59
36242;BME280;22283;42.748;12.732;2024-03-02T13:10:31;97555.63;;;14.39;69.91
36242;BME280;22283;42.748;12.732;2024-03-02T13:15:35;97556.75;;;14.37;68.15
36242;BME280;22283;42.748;12.732;2024-03-02T13:20:36;97552.03;;;14.48;68.82
36242;BME280;22283;42.748;12.732;2024-03-02T13:25:37;97550.94;;;14.69;70.46
36242;BME280;22283;42.748;12.732;2024-03-02T13:30:38;97540.34;;;14.95;67.84
36242;BME280;22283;42.748;12.732;2024-03-02T13:35:38;97546.31;;;14.89;69.10
36242;BME280;22283;42.748;12.732;2024-03-02T13:40:42;97547.88;;;14.99;66.00
36242;BME280;22283;42.748;12.732;2024-03-02T13:45:42;97531.00;;;14.91;66.14
36242;BME280;22283;42.748;12.732;2024-03-02T13:50:44;97541.34;;;14.94;68.01
36242;BME280;22283;42.748;12.732;2024-03-02T13:55:45;97542.59;;;14.82;67.50
36242;BME280;22283;42.748;12.732;2024-03-02T14:00:46;97536.03;;;14.58;68.20
36242;BME280;22283;42.748;12.732;2024-03-02T14:05:47;97534.06;;;14.60;68.98
36242;BME280;22283;42.748;12.732;2024-03-02T14:10:49;97541.56;;;14.47;70.75
36242;BME280;22283;42.748;12.732;2024-03-02T14:15:50;97542.16;;;13.95;73.15
36242;BME280;22283;42.748;12.732;2024-03-02T14:20:51;97538.84;;;13.84;75.67
36242;BME280;22283;42.748;12.732;2024-03-02T14:25:52;97538.56;;;13.77;76.72
36242;BME280;22283;42.748;12.732;2024-03-02T14:30:53;97529.16;;;13.55;76.98
36242;BME280;22283;42.748;12.732;2024-03-02T14:35:56;97552.25;;;13.45;77.65
36242;BME280;22283;42.748;12.732;2024-03-02T14:40:56;97557.47;;;13.37;81.07
36242;BME280;22283;42.748;12.732;2024-03-02T14:45:57;97556.63;;;13.17;87.26
36242;BME280;22283;42.748;12.732;2024-03-02T14:50:59;97546.28;;;13.14;89.59
36242;BME280;22283;42.748;12.732;2024-03-02T14:56:00;97546.84;;;13.17;91.92
36242;BME280;22283;42.748;12.732;2024-03-02T15:01:00;97542.22;;;13.39;91.16
36242;BME280;22283;42.748;12.732;2024-03-02T15:06:02;97552.06;;;13.66;86.93
36242;BME280;22283;42.748;12.732;2024-03-02T15:11:04;97537.63;;;13.68;80.69
36242;BME280;22283;42.748;12.732;2024-03-02T15:16:05;97532.63;;;13.93;79.34
36242;BME280;22283;42.748;12.732;2024-03-02T15:21:05;97525.94;;;13.89;78.69
36242;BME280;22283;42.748;12.732;2024-03-02T15:26:06;97525.34;;;13.95;80.20
36242;BME280;22283;42.748;12.732;2024-03-02T15:31:07;97532.63;;;13.93;81.67
36242;BME280;22283;42.748;12.732;2024-03-02T15:36:08;97535.91;;;13.77;83.39
36242;BME280;22283;42.748;12.732;2024-03-02T15:41:08;97532.09;;;13.52;85.63
36242;BME280;22283;42.748;12.732;2024-03-02T15:46:09;97531.75;;;13.27;87.61
36242;BME280;22283;42.748;12.732;2024-03-02T15:51:10;97530.22;;;13.05;89.88
36242;BME280;22283;42.748;12.732;2024-03-02T15:56:11;97527.91;;;12.83;92.22
36242;BME280;22283;42.748;12.732;2024-03-02T16:01:12;97537.94;;;12.70;93.93
36242;BME280;22283;42.748;12.732;2024-03-02T16:06:13;97536.28;;;12.59;95.57
36242;BME280;22283;42.748;12.732;2024-03-02T16:11:13;97540.59;;;12.41;97.17
36242;BME280;22283;42.748;12.732;2024-03-02T16:16:14;97546.53;;;12.23;100.00
36242;BME280;22283;42.748;12.732;2024-03-02T16:21:21;97547.53;;;12.13;100.00
36242;BME280;22283;42.748;12.732;2024-03-02T16:26:25;97540.66;;;12.10;100.00
36242;BME280;22283;42.748;12.732;2024-03-02T16:31:26;97538.13;;;11.99;100.00
36242;BME280;22283;42.748;12.732;2024-03-02T16:36:26;97543.81;;;11.85;100.00
36242;BME280;22283;42.748;12.732;2024-03-02T16:41:28;97554.75;;;11.70;100.00
36242;BME280;22283;42.748;12.732;2024-03-02T16:46:29;97554.91;;;11.48;100.00
36242;BME280;22283;42.748;12.732;2024-03-02T16:51:30;97567.66;;;11.33;100.00
36242;BME280;22283;42.748;12.732;2024-03-02T16:56:40;97584.91;;;11.27;100.00
36242;BME280;22283;42.748;12.732;2024-03-02T17:01:41;97579.84;;;11.24;100.00
36242;BME280;22283;42.748;12.732;2024-03-02T17:06:42;97592.06;;;11.16;100.00
36242;BME280;22283;42.748;12.732;2024-03-02T17:11:42;97598.66;;;11.00;100.00
36242;BME280;22283;42.748;12.732;2024-03-02T17:16:43;97605.69;;;10.90;100.00
36242;BME280;22283;42.748;12.732;2024-03-02T17:21:43;97610.44;;;10.75;100.00
36242;BME280;22283;42.748;12.732;2024-03-02T17:26:44;97611.19;;;10.66;100.00
36242;BME280;22283;42.748;12.732;2024-03-02T17:31:44;97611.91;;;10.57;100.00
36242;BME280;22283;42.748;12.732;2024-03-02T17:36:45;97616.28;;;10.47;100.00
36242;BME280;22283;42.748;12.732;2024-03-02T17:41:45;97603.09;;;10.36;100.00
36242;BME280;22283;42.748;12.732;2024-03-02T17:46:46;97615.09;;;10.40;100.00
36242;BME280;22283;42.748;12.732;2024-03-02T17:51:46;97611.00;;;10.47;99.87
36242;BME280;22283;42.748;12.732;2024-03-02T17:56:47;97602.56;;;10.53;99.06
36242;BME280;22283;42.748;12.732;2024-03-02T18:01:47;97620.44;;;10.61;99.67
36242;BME280;22283;42.748;12.732;2024-03-02T18:06:48;97623.69;;;10.64;99.50
36242;BME280;22283;42.748;12.732;2024-03-02T18:11:48;97621.19;;;10.63;100.00
36242;BME280;22283;42.748;12.732;2024-03-02T18:16:49;97623.00;;;10.62;100.00
36242;BME280;22283;42.748;12.732;2024-03-02T18:21:49;97638.13;;;10.60;100.00
36242;BME280;22283;42.748;12.732;2024-03-02T18:26:50;97636.94;;;10.53;100.00
36242;BME280;22283;42.748;12.732;2024-03-02T18:31:50;97623.50;;;10.45;100.00
36242;BME280;22283;42.748;12.732;2024-03-02T18:36:51;97639.63;;;10.42;100.00
36242;BME280;22283;42.748;12.732;2024-03-02T18:41:51;97658.25;;;10.29;100.00
36242;BME280;22283;42.748;12.732;2024-03-02T18:46:52;97667.72;;;10.20;100.00
36242;BME280;22283;42.748;12.732;2024-03-02T18:51:52;97663.66;;;10.16;100.00
36242;BME280;22283;42.748;12.732;2024-03-02T18:56:54;97663.91;;;10.02;100.00
36242;BME280;22283;42.748;12.732;2024-03-02T19:01:54;97670.28;;;9.99;100.00
36242;BME280;22283;42.748;12.732;2024-03-02T19:06:55;97677.47;;;9.86;100.00
36242;BME280;22283;42.748;12.732;2024-03-02T19:11:55;97687.91;;;9.76;100.00
36242;BME280;22283;42.748;12.732;2024-03-02T19:16:56;97699.19;;;9.78;100.00
36242;BME280;22283;42.748;12.732;2024-03-02T19:21:57;97703.06;;;9.97;100.00
36242;BME280;22283;42.748;12.732;2024-03-02T19:26:57;97693.22;;;10.10;100.00
36242;BME280;22283;42.748;12.732;2024-03-02T19:31:58;97691.28;;;10.12;100.00
36242;BME280;22283;42.748;12.732;2024-03-02T19:36:58;97697.31;;;10.03;100.00
36242;BME280;22283;42.748;12.732;2024-03-02T19:42:00;97698.28;;;10.02;100.00
36242;BME280;22283;42.748;12.732;2024-03-02T19:47:01;97698.25;;;9.91;100.00
36242;BME280;22283;42.748;12.732;2024-03-02T19:52:02;97698.59;;;9.75;100.00
36242;BME280;22283;42.748;12.732;2024-03-02T19:57:03;97707.56;;;9.61;100.00
36242;BME280;22283;42.748;12.732;2024-03-02T20:02:04;97706.84;;;9.59;100.00
36242;BME280;22283;42.748;12.732;2024-03-02T20:07:10;97691.41;;;9.42;100.00
36242;BME280;22283;42.748;12.732;2024-03-02T20:12:11;97701.97;;;9.42;100.00
36242;BME280;22283;42.748;12.732;2024-03-02T20:17:11;97694.31;;;9.39;100.00
36242;BME280;22283;42.748;12.732;2024-03-02T20:22:12;97691.41;;;9.42;100.00
36242;BME280;22283;42.748;12.732;2024-03-02T20:27:13;97681.09;;;9.39;100.00
36242;BME280;22283;42.748;12.732;2024-03-02T20:32:14;97679.34;;;9.26;100.00
36242;BME280;22283;42.748;12.732;2024-03-02T20:37:14;97676.94;;;9.12;100.00
36242;BME280;22283;42.748;12.732;2024-03-02T20:42:15;97673.19;;;9.03;100.00
36242;BME280;22283;42.748;12.732;2024-03-02T20:47:16;97674.19;;;8.90;100.00
36242;BME280;22283;42.748;12.732;2024-03-02T20:52:16;97690.22;;;8.86;100.00
36242;BME280;22283;42.748;12.732;2024-03-02T20:57:17;97690.63;;;8.93;100.00
36242;BME280;22283;42.748;12.732;2024-03-02T21:02:17;97676.88;;;9.01;100.00
36242;BME280;22283;42.748;12.732;2024-03-02T21:07:18;97692.50;;;9.04;100.00
36242;BME280;22283;42.748;12.732;2024-03-02T21:12:18;97694.63;;;8.99;100.00
36242;BME280;22283;42.748;12.732;2024-03-02T21:17:19;97688.75;;;8.95;100.00
36242;BME280;22283;42.748;12.732;2024-03-02T21:22:19;97699.44;;;8.81;100.00
36242;BME280;22283;42.748;12.732;2024-03-02T21:27:22;97704.78;;;8.68;100.00
36242;BME280;22283;42.748;12.732;2024-03-02T21:32:22;97702.78;;;8.59;100.00
36242;BME280;22283;42.748;12.732;2024-03-02T21:37:23;97704.03;;;8.66;100.00
36242;BME280;22283;42.748;12.732;2024-03-02T21:42:24;97707.41;;;8.68;100.00
36242;BME280;22283;42.748;12.732;2024-03-02T21:47:24;97710.69;;;8.59;100.00
36242;BME280;22283;42.748;12.732;2024-03-02T21:52:25;97713.13;;;8.62;100.00
36242;BME280;22283;42.748;12.732;2024-03-02T21:57:25;97709.31;;;8.66;100.00
36242;BME280;22283;42.748;12.732;2024-03-02T22:02:26;97721.56;;;8.67;100.00
36242;BME280;22283;42.748;12.732;2024-03-02T22:07:29;97714.56;;;8.66;100.00
36242;BME280;22283;42.748;12.732;2024-03-02T22:12:30;97707.72;;;8.40;100.00
36242;BME280;22283;42.748;12.732;2024-03-02T22:17:30;97721.47;;;8.43;100.00
36242;BME280;22283;42.748;12.732;2024-03-02T22:22:31;97718.56;;;8.48;100.00
36242;BME280;22283;42.748;12.732;2024-03-02T22:27:32;97709.50;;;8.63;100.00
36242;BME280;22283;42.748;12.732;2024-03-02T22:32:34;97716.41;;;8.90;100.00
36242;BME280;22283;42.748;12.732;2024-03-02T22:37:34;97724.03;;;9.05;100.00
36242;BME280;22283;42.748;12.732;2024-03-02T22:42:35;97726.50;;;9.20;100.00
36242;BME280;22283;42.748;12.732;2024-03-02T22:47:35;97717.56;;;9.33;100.00
36242;BME280;22283;42.748;12.732;2024-03-02T22:52:36;97710.72;;;9.42;100.00
36242;BME280;22283;42.748;12.732;2024-03-02T22:57:37;97721.69;;;9.49;100.00
36242;BME280;22283;42.748;12.732;2024-03-02T23:02:37;97720.63;;;9.51;100.00
36242;BME280;22283;42.748;12.732;2024-03-02T23:07:38;97731.91;;;9.53;100.00
36242;BME280;22283;42.748;12.732;2024-03-02T23:12:38;97740.28;;;9.47;100.00
36242;BME280;22283;42.748;12.732;2024-03-02T23:17:39;97730.97;;;9.30;100.00
36242;BME280;22283;42.748;12.732;2024-03-02T23:22:40;97731.88;;;9.18;100.00
36242;BME280;22283;42.748;12.732;2024-03-02T23:27:43;97721.41;;;9.05;100.00
36242;BME280;22283;42.748;12.732;2024-03-02T23:32:44;97739.31;;;8.89;100.00
36242;BME280;22283;42.748;12.732;2024-03-02T23:37:44;97748.53;;;8.71;100.00
36242;BME280;22283;42.748;12.732;2024-03-02T23:42:45;97751.72;;;8.63;100.00
36242;BME280;22283;42.748;12.732;2024-03-02T23:47:46;97739.94;;;8.56;100.00
36242;BME280;22283;42.748;12.732;2024-03-02T23:52:46;97740.38;;;8.50;100.00
36242;BME280;22283;42.748;12.732;2024-03-02T23:57:47;97751.78;;;8.37;100.00
